sensor_id;sensor_type;location;lat;lon;timestamp;pressure;altitude;pressure_sealevel;temperature;humidity
706;BME280;21234;48.690;9.016;2023-06-14T00:01:49;95653.13;;;14.99;48.35
706;BME280;21234;48.690;9.016;2023-06-14T00:04:15;95655.56;;;15.01;48.61
706;BME280;21234;48.690;9.016;2023-06-14T00:06:43;95653.22;;;14.94;49.50
706;BME280;21234;48.690;9.016;2023-06-14T00:09:10;95663.47;;;14.84;49.53
706;BME280;21234;48.690;9.016;2023-06-14T00:11:39;95674.66;;;14.87;49.90
706;BME280;21234;48.690;9.016;2023-06-14T00:14:06;95665.25;;;14.69;49.39
706;BME280;21234;48.690;9.016;2023-06-14T00:16:32;95666.59;;;14.72;48.12
706;BME280;21234;48.690;9.016;2023-06-14T00:19:00;95673.00;;;14.62;48.21
706;BME280;21234;48.690;9.016;2023-06-14T00:21:28;95658.88;;;14.55;48.32
706;BME280;21234;48.690;9.016;2023-06-14T00:23:55;95666.72;;;14.62;49.18
706;BME280;21234;48.690;9.016;2023-06-14T00:26:22;95661.34;;;14.52;50.26
706;BME280;21234;48.690;9.016;2023-06-14T00:28:50;95660.31;;;14.48;50.58
706;BME280;21234;48.690;9.016;2023-06-14T00:31:16;95664.28;;;14.60;49.79
706;BME280;21234;48.690;9.016;2023-06-14T00:33:43;95658.81;;;14.60;50.95
706;BME280;21234;48.690;9.016;2023-06-14T00:36:10;95663.38;;;14.65;51.08
706;BME280;21234;48.690;9.016;2023-06-14T00:38:37;95656.66;;;14.57;51.84
706;BME280;21234;48.690;9.016;2023-06-14T00:41:03;95656.19;;;14.50;51.96
706;BME280;21234;48.690;9.016;2023-06-14T00:43:30;95650.13;;;14.53;52.34
706;BME280;21234;48.690;9.016;2023-06-14T00:45:58;95655.31;;;14.55;52.88
706;BME280;21234;48.690;9.016;2023-06-14T00:48:25;95655.19;;;14.36;53.22
706;BME280;21234;48.690;9.016;2023-06-14T00:50:52;95657.22;;;14.25;53.69
706;BME280;21234;48.690;9.016;2023-06-14T00:53:19;95653.81;;;14.09;54.14
706;BME280;21234;48.690;9.016;2023-06-14T00:55:48;95659.59;;;14.03;54.66
706;BME280;21234;48.690;9.016;2023-06-14T00:58:15;95645.97;;;13.98;54.00
706;BME280;21234;48.690;9.016;2023-06-14T01:00:42;95653.59;;;14.01;54.81
706;BME280;21234;48.690;9.016;2023-06-14T01:03:11;95660.00;;;13.91;54.84
706;BME280;21234;48.690;9.016;2023-06-14T01:05:38;95651.22;;;13.94;54.72
706;BME280;21234;48.690;9.016;2023-06-14T01:08:25;95652.78;;;14.00;54.47
706;BME280;21234;48.690;9.016;2023-06-14T01:11:01;95657.88;;;13.83;54.90
706;BME280;21234;48.690;9.016;2023-06-14T01:13:33;95654.66;;;13.71;54.75
706;BME280;21234;48.690;9.016;2023-06-14T01:16:02;95656.56;;;13.75;54.70
706;BME280;21234;48.690;9.016;2023-06-14T01:18:30;95657.88;;;13.83;54.32
706;BME280;21234;48.690;9.016;2023-06-14T01:20:57;95658.75;;;13.73;54.37
706;BME280;21234;48.690;9.016;2023-06-14T01:23:25;95655.22;;;13.68;54.63
706;BME280;21234;48.690;9.016;2023-06-14T01:25:57;95663.25;;;13.59;54.14
706;BME280;21234;48.690;9.016;2023-06-14T01:28:24;95663.00;;;13.56;55.11
706;BME280;21234;48.690;9.016;2023-06-14T01:30:52;95663.56;;;13.53;54.85
706;BME280;21234;48.690;9.016;2023-06-14T01:33:21;95660.53;;;13.54;54.91
706;BME280;21234;48.690;9.016;2023-06-14T01:35:50;95664.09;;;13.55;55.23
706;BME280;21234;48.690;9.016;2023-06-14T01:38:19;95661.16;;;13.41;56.16
706;BME280;21234;48.690;9.016;2023-06-14T01:40:47;95655.41;;;13.42;56.36
706;BME280;21234;48.690;9.016;2023-06-14T01:43:16;95661.97;;;13.41;56.12
706;BME280;21234;48.690;9.016;2023-06-14T01:45:45;95663.09;;;13.35;56.38
706;BME280;21234;48.690;9.016;2023-06-14T01:48:14;95668.91;;;13.24;56.58
706;BME280;21234;48.690;9.016;2023-06-14T01:50:41;95664.31;;;13.19;56.00
706;BME280;21234;48.690;9.016;2023-06-14T01:53:08;95668.94;;;13.13;56.38
706;BME280;21234;48.690;9.016;2023-06-14T01:55:35;95664.28;;;13.14;56.31
706;BME280;21234;48.690;9.016;2023-06-14T01:58:05;95666.75;;;13.10;55.71
706;BME280;21234;48.690;9.016;2023-06-14T02:00:31;95661.84;;;13.12;56.73
706;BME280;21234;48.690;9.016;2023-06-14T02:02:58;95669.53;;;13.00;56.63
706;BME280;21234;48.690;9.016;2023-06-14T02:05:25;95669.50;;;13.05;56.57
706;BME280;21234;48.690;9.016;2023-06-14T02:07:52;95658.81;;;13.24;56.08
706;BME280;21234;48.690;9.016;2023-06-14T02:10:20;95667.59;;;13.06;56.33
706;BME280;21234;48.690;9.016;2023-06-14T02:12:47;95672.31;;;12.95;56.77
706;BME280;21234;48.690;9.016;2023-06-14T02:15:15;95661.16;;;12.87;57.05
706;BME280;21234;48.690;9.016;2023-06-14T02:17:43;95669.03;;;12.98;56.58
706;BME280;21234;48.690;9.016;2023-06-14T02:20:11;95662.75;;;12.93;56.09
706;BME280;21234;48.690;9.016;2023-06-14T02:22:38;95670.44;;;12.86;56.62
706;BME280;21234;48.690;9.016;2023-06-14T02:25:05;95668.25;;;12.77;56.24
706;BME280;21234;48.690;9.016;2023-06-14T02:27:31;95667.16;;;12.84;55.83
706;BME280;21234;48.690;9.016;2023-06-14T02:29:59;95667.44;;;12.77;56.59
706;BME280;21234;48.690;9.016;2023-06-14T02:32:27;95666.34;;;12.78;57.08
706;BME280;21234;48.690;9.016;2023-06-14T02:34:54;95669.88;;;12.84;56.32
706;BME280;21234;48.690;9.016;2023-06-14T02:37:21;95669.88;;;12.84;57.02
706;BME280;21234;48.690;9.016;2023-06-14T02:39:47;95663.63;;;12.78;57.41
706;BME280;21234;48.690;9.016;2023-06-14T02:42:14;95661.19;;;12.76;57.93
706;BME280;21234;48.690;9.016;2023-06-14T02:44:41;95666.94;;;12.70;58.48
706;BME280;21234;48.690;9.016;2023-06-14T02:47:08;95660.72;;;12.59;58.49
706;BME280;21234;48.690;9.016;2023-06-14T02:49:36;95655.81;;;12.56;58.42
706;BME280;21234;48.690;9.016;2023-06-14T02:52:03;95665.38;;;12.49;58.43
706;BME280;21234;48.690;9.016;2023-06-14T02:54:31;95659.38;;;12.41;59.91
706;BME280;21234;48.690;9.016;2023-06-14T02:56:58;95660.44;;;12.51;59.40
706;BME280;21234;48.690;9.016;2023-06-14T02:59:25;95660.19;;;12.42;59.90
706;BME280;21234;48.690;9.016;2023-06-14T03:01:51;95657.47;;;12.42;60.60
706;BME280;21234;48.690;9.016;2023-06-14T03:04:18;95671.66;;;12.39;60.65
706;BME280;21234;48.690;9.016;2023-06-14T03:06:46;95663.50;;;12.34;60.81
706;BME280;21234;48.690;9.016;2023-06-14T03:09:15;95659.72;;;12.20;61.79
706;BME280;21234;48.690;9.016;2023-06-14T03:11:42;95663.25;;;12.15;61.78
706;BME280;21234;48.690;9.016;2023-06-14T03:14:09;95647.72;;;12.10;61.72
706;BME280;21234;48.690;9.016;2023-06-14T03:16:36;95662.44;;;12.20;61.44
706;BME280;21234;48.690;9.016;2023-06-14T03:19:03;95669.78;;;12.24;60.48
706;BME280;21234;48.690;9.016;2023-06-14T03:21:30;95668.97;;;12.24;60.57
706;BME280;21234;48.690;9.016;2023-06-14T03:23:59;95674.41;;;12.14;61.50
706;BME280;21234;48.690;9.016;2023-06-14T03:26:25;95668.97;;;12.14;61.50
706;BME280;21234;48.690;9.016;2023-06-14T03:28:52;95675.50;;;12.23;61.07
706;BME280;21234;48.690;9.016;2023-06-14T03:31:19;95682.06;;;12.22;61.43
706;BME280;21234;48.690;9.016;2023-06-14T03:33:46;95685.59;;;12.17;61.59
706;BME280;21234;48.690;9.016;2023-06-14T03:36:13;95683.97;;;12.16;61.53
706;BME280;21234;48.690;9.016;2023-06-14T03:38:40;95680.69;;;12.04;61.99
706;BME280;21234;48.690;9.016;2023-06-14T03:41:08;95681.22;;;12.06;61.90
706;BME280;21234;48.690;9.016;2023-06-14T03:43:34;95688.03;;;12.14;61.75
706;BME280;21234;48.690;9.016;2023-06-14T03:46:01;95690.78;;;12.24;61.69
706;BME280;21234;48.690;9.016;2023-06-14T03:48:28;95689.69;;;12.20;61.99
706;BME280;21234;48.690;9.016;2023-06-14T03:50:55;95688.88;;;12.19;62.06
706;BME280;21234;48.690;9.016;2023-06-14T03:53:22;95691.03;;;12.27;61.99
706;BME280;21234;48.690;9.016;2023-06-14T03:55:49;95698.94;;;12.24;62.09
706;BME280;21234;48.690;9.016;2023-06-14T03:58:19;95692.41;;;12.20;62.12
706;BME280;21234;48.690;9.016;2023-06-14T04:00:45;95703.81;;;12.42;61.43
706;BME280;21234;48.690;9.016;2023-06-14T04:03:12;95698.63;;;12.45;61.50
706;BME280;21234;48.690;9.016;2023-06-14T04:05:40;95704.34;;;12.49;62.01
706;BME280;21234;48.690;9.016;2023-06-14T04:08:09;95706.56;;;12.32;63.00
706;BME280;21234;48.690;9.016;2023-06-14T04:10:40;95708.47;;;12.31;63.14
706;BME280;21234;48.690;9.016;2023-06-14T04:13:06;95716.34;;;12.38;63.83
706;BME280;21234;48.690;9.016;2023-06-14T04:15:35;95713.91;;;12.36;63.86
706;BME280;21234;48.690;9.016;2023-06-14T04:18:02;95712.03;;;12.32;64.39
706;BME280;21234;48.690;9.016;2023-06-14T04:20:29;95717.44;;;12.42;64.11
706;BME280;21234;48.690;9.016;2023-06-14T04:22:56;95727.00;;;12.34;64.61
706;BME280;21234;48.690;9.016;2023-06-14T04:25:23;95727.53;;;12.36;64.14
706;BME280;21234;48.690;9.016;2023-06-14T04:27:51;95723.75;;;12.32;64.21
706;BME280;21234;48.690;9.016;2023-06-14T04:30:17;95719.63;;;12.45;64.54
706;BME280;21234;48.690;9.016;2023-06-14T04:32:45;95719.63;;;12.45;64.49
706;BME280;21234;48.690;9.016;2023-06-14T04:35:12;95717.69;;;12.51;64.29
706;BME280;21234;48.690;9.016;2023-06-14T04:37:39;95724.78;;;12.57;63.16
706;BME280;21234;48.690;9.016;2023-06-14T04:40:08;95726.16;;;12.59;64.14
706;BME280;21234;48.690;9.016;2023-06-14T04:42:34;95725.31;;;12.64;62.50
706;BME280;21234;48.690;9.016;2023-06-14T04:45:02;95727.19;;;12.68;63.38
706;BME280;21234;48.690;9.016;2023-06-14T04:47:29;95731.53;;;12.74;61.98
706;BME280;21234;48.690;9.016;2023-06-14T04:49:57;95730.47;;;12.75;61.71
706;BME280;21234;48.690;9.016;2023-06-14T04:52:25;95740.25;;;12.87;62.18
706;BME280;21234;48.690;9.016;2023-06-14T04:54:55;95737.50;;;12.97;62.43
706;BME280;21234;48.690;9.016;2023-06-14T04:57:22;95737.22;;;12.98;62.53
706;BME280;21234;48.690;9.016;2023-06-14T04:59:50;95738.53;;;13.11;62.27
706;BME280;21234;48.690;9.016;2023-06-14T05:02:21;95740.19;;;13.17;60.86
706;BME280;21234;48.690;9.016;2023-06-14T05:04:49;95748.00;;;13.34;60.87
706;BME280;21234;48.690;9.016;2023-06-14T05:07:17;95747.44;;;13.42;60.65
706;BME280;21234;48.690;9.016;2023-06-14T05:09:44;95742.19;;;13.51;59.76
706;BME280;21234;48.690;9.016;2023-06-14T05:12:11;95748.47;;;13.51;59.17
706;BME280;21234;48.690;9.016;2023-06-14T05:14:38;95748.97;;;13.63;60.54
706;BME280;21234;48.690;9.016;2023-06-14T05:17:05;95744.78;;;13.76;59.19
706;BME280;21234;48.690;9.016;2023-06-14T05:19:32;95748.00;;;13.88;61.55
706;BME280;21234;48.690;9.016;2023-06-14T05:21:59;95744.84;;;14.05;59.91
706;BME280;21234;48.690;9.016;2023-06-14T05:24:27;95751.28;;;14.24;58.80
706;BME280;21234;48.690;9.016;2023-06-14T05:26:55;95753.84;;;14.44;58.02
706;BME280;21234;48.690;9.016;2023-06-14T05:29:21;95755.66;;;14.59;57.87
706;BME280;21234;48.690;9.016;2023-06-14T05:31:48;95745.38;;;14.75;56.75
706;BME280;21234;48.690;9.016;2023-06-14T05:34:14;95756.16;;;14.90;55.19
706;BME280;21234;48.690;9.016;2023-06-14T05:36:41;95754.94;;;15.01;54.88
706;BME280;21234;48.690;9.016;2023-06-14T05:39:08;95759.72;;;15.15;54.36
706;BME280;21234;48.690;9.016;2023-06-14T05:41:36;95761.09;;;15.36;54.98
706;BME280;21234;48.690;9.016;2023-06-14T05:44:02;95765.59;;;15.51;53.83
706;BME280;21234;48.690;9.016;2023-06-14T05:46:29;95762.00;;;15.74;53.73
706;BME280;21234;48.690;9.016;2023-06-14T05:48:56;95759.94;;;15.85;51.45
706;BME280;21234;48.690;9.016;2023-06-14T05:51:23;95758.84;;;16.04;51.86
706;BME280;21234;48.690;9.016;2023-06-14T05:53:51;95765.44;;;16.22;51.79
706;BME280;21234;48.690;9.016;2023-06-14T05:56:18;95752.06;;;16.34;50.10
706;BME280;21234;48.690;9.016;2023-06-14T05:58:47;95754.78;;;16.53;50.02
706;BME280;21234;48.690;9.016;2023-06-14T06:01:14;95765.63;;;16.77;49.70
706;BME280;21234;48.690;9.016;2023-06-14T06:03:41;95764.84;;;16.90;48.36
706;BME280;21234;48.690;9.016;2023-06-14T06:06:11;95765.88;;;17.08;47.66
706;BME280;21234;48.690;9.016;2023-06-14T06:08:37;95768.53;;;17.27;47.02
706;BME280;21234;48.690;9.016;2023-06-14T06:11:04;95772.31;;;17.44;46.11
706;BME280;21234;48.690;9.016;2023-06-14T06:13:31;95772.00;;;17.60;46.44
706;BME280;21234;48.690;9.016;2023-06-14T06:15:59;95770.91;;;17.74;45.15
706;BME280;21234;48.690;9.016;2023-06-14T06:18:26;95768.91;;;17.89;44.45
706;BME280;21234;48.690;9.016;2023-06-14T06:20:52;95768.88;;;18.16;44.19
706;BME280;21234;48.690;9.016;2023-06-14T06:23:19;95773.63;;;18.24;43.58
706;BME280;21234;48.690;9.016;2023-06-14T06:25:45;95763.78;;;18.45;43.06
706;BME280;21234;48.690;9.016;2023-06-14T06:28:12;95765.84;;;18.62;43.09
706;BME280;21234;48.690;9.016;2023-06-14T06:30:39;95771.81;;;18.78;42.21
706;BME280;21234;48.690;9.016;2023-06-14T06:33:07;95767.69;;;18.98;41.57
706;BME280;21234;48.690;9.016;2023-06-14T06:35:33;95769.88;;;19.09;42.08
706;BME280;21234;48.690;9.016;2023-06-14T06:38:00;95777.44;;;19.35;41.25
706;BME280;21234;48.690;9.016;2023-06-14T06:40:27;95784.31;;;19.46;41.32
706;BME280;21234;48.690;9.016;2023-06-14T06:42:53;95776.78;;;19.69;39.98
706;BME280;21234;48.690;9.016;2023-06-14T06:45:20;95778.91;;;19.72;39.26
706;BME280;21234;48.690;9.016;2023-06-14T06:47:48;95796.44;;;19.85;39.26
706;BME280;21234;48.690;9.016;2023-06-14T06:50:17;95784.16;;;19.99;39.05
706;BME280;21234;48.690;9.016;2023-06-14T06:52:44;95795.38;;;20.11;39.39
706;BME280;21234;48.690;9.016;2023-06-14T06:55:11;95798.31;;;20.32;38.78
706;BME280;21234;48.690;9.016;2023-06-14T06:57:38;95795.13;;;20.39;38.73
706;BME280;21234;48.690;9.016;2023-06-14T07:00:06;95802.75;;;20.59;36.94
706;BME280;21234;48.690;9.016;2023-06-14T07:02:35;95802.09;;;20.62;36.96
706;BME280;21234;48.690;9.016;2023-06-14T07:05:02;95799.00;;;20.64;36.82
706;BME280;21234;48.690;9.016;2023-06-14T07:07:30;95799.94;;;20.94;37.67
706;BME280;21234;48.690;9.016;2023-06-14T07:09:56;95801.09;;;21.01;37.83
706;BME280;21234;48.690;9.016;2023-06-14T07:12:24;95803.34;;;21.08;37.40
706;BME280;21234;48.690;9.016;2023-06-14T07:14:51;95806.72;;;21.13;37.57
706;BME280;21234;48.690;9.016;2023-06-14T07:17:17;95803.81;;;21.27;36.21
706;BME280;21234;48.690;9.016;2023-06-14T07:19:44;95810.94;;;21.37;36.24
706;BME280;21234;48.690;9.016;2023-06-14T07:22:11;95816.78;;;21.44;36.19
706;BME280;21234;48.690;9.016;2023-06-14T07:24:39;95814.34;;;21.42;36.64
706;BME280;21234;48.690;9.016;2023-06-14T07:27:07;95821.63;;;21.47;36.51
706;BME280;21234;48.690;9.016;2023-06-14T07:29:34;95815.44;;;21.50;38.11
706;BME280;21234;48.690;9.016;2023-06-14T07:32:00;95816.88;;;21.65;36.10
706;BME280;21234;48.690;9.016;2023-06-14T07:34:27;95814.63;;;21.88;35.26
706;BME280;21234;48.690;9.016;2023-06-14T07:36:54;95823.56;;;22.02;34.34
706;BME280;21234;48.690;9.016;2023-06-14T07:39:21;95820.13;;;22.05;34.29
706;BME280;21234;48.690;9.016;2023-06-14T07:41:49;95828.56;;;22.08;34.44
706;BME280;21234;48.690;9.016;2023-06-14T07:44:15;95831.84;;;22.02;35.63
706;BME280;21234;48.690;9.016;2023-06-14T07:46:42;95831.56;;;21.86;34.85
706;BME280;21234;48.690;9.016;2023-06-14T07:49:09;95834.63;;;22.02;35.77
706;BME280;21234;48.690;9.016;2023-06-14T07:51:36;95835.56;;;22.35;36.21
706;BME280;21234;48.690;9.016;2023-06-14T07:54:03;95837.38;;;22.52;35.79
706;BME280;21234;48.690;9.016;2023-06-14T07:56:32;95836.56;;;22.52;35.21
706;BME280;21234;48.690;9.016;2023-06-14T07:59:00;95832.59;;;22.61;35.71
706;BME280;21234;48.690;9.016;2023-06-14T08:01:27;95834.47;;;22.49;35.66
706;BME280;21234;48.690;9.016;2023-06-14T08:03:53;95839.63;;;22.59;36.54
706;BME280;21234;48.690;9.016;2023-06-14T08:06:20;95837.03;;;22.74;34.07
706;BME280;21234;48.690;9.016;2023-06-14T08:08:47;95842.22;;;22.85;36.06
706;BME280;21234;48.690;9.016;2023-06-14T08:11:13;95843.16;;;22.89;36.09
706;BME280;21234;48.690;9.016;2023-06-14T08:13:40;95836.69;;;22.85;35.34
706;BME280;21234;48.690;9.016;2023-06-14T08:16:08;95838.84;;;22.79;34.34
706;BME280;21234;48.690;9.016;2023-06-14T08:18:36;95844.66;;;22.86;35.71
706;BME280;21234;48.690;9.016;2023-06-14T08:21:03;95847.88;;;23.09;35.50
706;BME280;21234;48.690;9.016;2023-06-14T08:23:29;95845.66;;;22.82;34.58
706;BME280;21234;48.690;9.016;2023-06-14T08:25:56;95852.53;;;23.17;35.52
706;BME280;21234;48.690;9.016;2023-06-14T08:28:24;95848.59;;;23.18;34.85
706;BME280;21234;48.690;9.016;2023-06-14T08:30:50;95850.09;;;23.16;35.15
706;BME280;21234;48.690;9.016;2023-06-14T08:33:18;95849.59;;;23.01;35.08
706;BME280;21234;48.690;9.016;2023-06-14T08:35:45;95852.53;;;23.17;34.42
706;BME280;21234;48.690;9.016;2023-06-14T08:38:12;95846.31;;;23.20;36.00
706;BME280;21234;48.690;9.016;2023-06-14T08:40:40;95854.31;;;23.01;34.52
706;BME280;21234;48.690;9.016;2023-06-14T08:43:07;95840.28;;;23.18;35.00
706;BME280;21234;48.690;9.016;2023-06-14T08:45:34;95854.16;;;23.18;35.17
706;BME280;21234;48.690;9.016;2023-06-14T08:48:01;95852.44;;;23.26;33.39
706;BME280;21234;48.690;9.016;2023-06-14T08:50:29;95855.16;;;23.13;33.23
706;BME280;21234;48.690;9.016;2023-06-14T08:53:01;95862.81;;;23.17;33.92
706;BME280;21234;48.690;9.016;2023-06-14T08:55:29;95856.38;;;23.25;34.04
706;BME280;21234;48.690;9.016;2023-06-14T08:57:57;95856.31;;;23.45;33.53
706;BME280;21234;48.690;9.016;2023-06-14T09:00:25;95859.88;;;23.67;32.44
706;BME280;21234;48.690;9.016;2023-06-14T09:02:52;95858.59;;;23.76;32.40
706;BME280;21234;48.690;9.016;2023-06-14T09:05:23;95861.25;;;23.73;33.00
706;BME280;21234;48.690;9.016;2023-06-14T09:07:51;95861.84;;;23.66;33.22
706;BME280;21234;48.690;9.016;2023-06-14T09:10:20;95860.56;;;23.64;33.69
706;BME280;21234;48.690;9.016;2023-06-14T09:12:47;95845.56;;;23.44;33.34
706;BME280;21234;48.690;9.016;2023-06-14T09:15:14;95851.44;;;23.42;33.93
706;BME280;21234;48.690;9.016;2023-06-14T09:17:42;95863.00;;;23.44;33.62
706;BME280;21234;48.690;9.016;2023-06-14T09:20:09;95872.16;;;23.45;34.18
706;BME280;21234;48.690;9.016;2023-06-14T09:22:38;95862.16;;;23.53;33.67
706;BME280;21234;48.690;9.016;2023-06-14T09:25:07;95863.28;;;23.52;34.20
706;BME280;21234;48.690;9.016;2023-06-14T09:27:34;95862.66;;;23.67;35.06
706;BME280;21234;48.690;9.016;2023-06-14T09:30:02;95866.16;;;23.88;34.29
706;BME280;21234;48.690;9.016;2023-06-14T09:32:29;95864.66;;;23.91;34.55
706;BME280;21234;48.690;9.016;2023-06-14T09:34:56;95863.28;;;24.21;33.45
706;BME280;21234;48.690;9.016;2023-06-14T09:37:27;95869.34;;;24.35;32.99
706;BME280;21234;48.690;9.016;2023-06-14T09:39:55;95868.72;;;24.18;31.72
706;BME280;21234;48.690;9.016;2023-06-14T09:42:23;95871.97;;;24.20;34.14
706;BME280;21234;48.690;9.016;2023-06-14T09:44:52;95872.28;;;23.94;32.15
706;BME280;21234;48.690;9.016;2023-06-14T09:47:18;95872.06;;;24.11;32.55
706;BME280;21234;48.690;9.016;2023-06-14T09:49:45;95878.19;;;24.17;31.57
706;BME280;21234;48.690;9.016;2023-06-14T09:52:15;95877.50;;;24.20;32.09
706;BME280;21234;48.690;9.016;2023-06-14T09:54:42;95874.38;;;24.09;30.94
706;BME280;21234;48.690;9.016;2023-06-14T09:57:12;95873.56;;;24.08;31.79
706;BME280;21234;48.690;9.016;2023-06-14T09:59:42;95869.88;;;24.41;31.75
706;BME280;21234;48.690;9.016;2023-06-14T10:02:12;95868.16;;;24.49;29.18
706;BME280;21234;48.690;9.016;2023-06-14T10:04:46;95866.63;;;24.63;30.73
706;BME280;21234;48.690;9.016;2023-06-14T10:07:19;95862.03;;;24.31;31.73
706;BME280;21234;48.690;9.016;2023-06-14T10:09:47;95862.81;;;24.43;28.33
706;BME280;21234;48.690;9.016;2023-06-14T10:12:16;95863.78;;;24.35;27.70
706;BME280;21234;48.690;9.016;2023-06-14T10:14:49;95862.72;;;24.28;28.42
706;BME280;21234;48.690;9.016;2023-06-14T10:17:22;95868.47;;;23.98;28.76
706;BME280;21234;48.690;9.016;2023-06-14T10:19:56;95863.97;;;23.94;30.07
706;BME280;21234;48.690;9.016;2023-06-14T10:22:30;95857.59;;;24.18;31.40
706;BME280;21234;48.690;9.016;2023-06-14T10:24:59;95852.53;;;24.44;32.12
706;BME280;21234;48.690;9.016;2023-06-14T10:27:26;95853.41;;;24.72;32.86
706;BME280;21234;48.690;9.016;2023-06-14T10:30:06;95857.22;;;25.20;31.02
706;BME280;21234;48.690;9.016;2023-06-14T10:32:33;95860.16;;;24.23;30.76
706;BME280;21234;48.690;9.016;2023-06-14T10:35:01;95873.16;;;23.28;31.87
706;BME280;21234;48.690;9.016;2023-06-14T10:37:30;95878.69;;;22.66;32.47
706;BME280;21234;48.690;9.016;2023-06-14T10:39:57;95870.41;;;22.36;33.18
706;BME280;21234;48.690;9.016;2023-06-14T10:42:28;95868.19;;;23.01;32.92
706;BME280;21234;48.690;9.016;2023-06-14T10:44:55;95864.41;;;23.51;31.03
706;BME280;21234;48.690;9.016;2023-06-14T10:47:25;95864.09;;;23.97;30.15
706;BME280;21234;48.690;9.016;2023-06-14T10:49:53;95868.81;;;23.52;30.17
706;BME280;21234;48.690;9.016;2023-06-14T10:52:23;95875.34;;;23.02;32.38
706;BME280;21234;48.690;9.016;2023-06-14T10:55:05;95873.00;;;22.62;34.07
706;BME280;21234;48.690;9.016;2023-06-14T10:57:35;95870.84;;;22.68;34.51
706;BME280;21234;48.690;9.016;2023-06-14T11:00:03;95853.31;;;23.38;34.16
706;BME280;21234;48.690;9.016;2023-06-14T11:05:45;95855.28;;;24.07;30.98
706;BME280;21234;48.690;9.016;2023-06-14T11:08:39;95852.06;;;24.54;31.14
706;BME280;21234;48.690;9.016;2023-06-14T11:11:07;95852.22;;;24.86;30.03
706;BME280;21234;48.690;9.016;2023-06-14T11:13:37;95850.34;;;24.90;28.75
706;BME280;21234;48.690;9.016;2023-06-14T11:16:10;95856.72;;;24.90;28.93
706;BME280;21234;48.690;9.016;2023-06-14T11:18:38;95855.69;;;24.83;30.27
706;BME280;21234;48.690;9.016;2023-06-14T11:21:05;95860.75;;;25.05;28.45
706;BME280;21234;48.690;9.016;2023-06-14T11:23:32;95858.31;;;24.51;27.40
706;BME280;21234;48.690;9.016;2023-06-14T11:25:58;95865.06;;;24.26;30.14
706;BME280;21234;48.690;9.016;2023-06-14T11:28:35;95854.50;;;24.56;31.94
706;BME280;21234;48.690;9.016;2023-06-14T11:31:03;95857.41;;;24.35;31.14
706;BME280;21234;48.690;9.016;2023-06-14T11:33:30;95858.50;;;23.85;31.42
706;BME280;21234;48.690;9.016;2023-06-14T11:35:58;95855.69;;;23.28;32.40
706;BME280;21234;48.690;9.016;2023-06-14T11:38:25;95855.81;;;23.64;32.52
706;BME280;21234;48.690;9.016;2023-06-14T11:40:51;95852.84;;;23.82;31.38
706;BME280;21234;48.690;9.016;2023-06-14T11:43:18;95851.34;;;23.39;31.82
706;BME280;21234;48.690;9.016;2023-06-14T11:45:48;95863.59;;;23.05;32.02
706;BME280;21234;48.690;9.016;2023-06-14T11:48:14;95858.66;;;22.90;33.46
706;BME280;21234;48.690;9.016;2023-06-14T11:50:41;95847.38;;;23.28;34.32
706;BME280;21234;48.690;9.016;2023-06-14T11:53:09;95852.50;;;23.83;31.72
706;BME280;21234;48.690;9.016;2023-06-14T11:55:36;95850.31;;;24.01;31.85
706;BME280;21234;48.690;9.016;2023-06-14T11:58:04;95848.94;;;23.50;32.19
706;BME280;21234;48.690;9.016;2023-06-14T12:00:31;95864.00;;;22.95;33.66
706;BME280;21234;48.690;9.016;2023-06-14T12:02:58;95864.22;;;22.60;34.14
706;BME280;21234;48.690;9.016;2023-06-14T12:05:25;95863.59;;;22.34;33.85
706;BME280;21234;48.690;9.016;2023-06-14T12:07:58;95866.03;;;22.35;35.38
706;BME280;21234;48.690;9.016;2023-06-14T12:10:27;95857.56;;;23.03;34.90
706;BME280;21234;48.690;9.016;2023-06-14T12:12:56;95854.47;;;23.83;33.03
706;BME280;21234;48.690;9.016;2023-06-14T12:15:24;95846.06;;;24.28;31.80
706;BME280;21234;48.690;9.016;2023-06-14T12:17:50;95853.00;;;24.34;31.18
706;BME280;21234;48.690;9.016;2023-06-14T12:20:18;95845.13;;;24.48;32.59
706;BME280;21234;48.690;9.016;2023-06-14T12:22:50;95852.22;;;24.86;31.63
706;BME280;21234;48.690;9.016;2023-06-14T12:25:24;95837.97;;;24.87;29.07
706;BME280;21234;48.690;9.016;2023-06-14T12:27:54;95850.25;;;25.26;30.58
706;BME280;21234;48.690;9.016;2023-06-14T12:30:21;95842.13;;;25.33;30.13
706;BME280;21234;48.690;9.016;2023-06-14T12:32:48;95840.66;;;25.39;29.07
706;BME280;21234;48.690;9.016;2023-06-14T12:35:16;95838.44;;;25.45;29.72
706;BME280;21234;48.690;9.016;2023-06-14T12:37:43;95842.66;;;25.11;29.20
706;BME280;21234;48.690;9.016;2023-06-14T12:40:11;95838.53;;;24.93;30.29
706;BME280;21234;48.690;9.016;2023-06-14T12:42:38;95845.56;;;25.02;29.97
706;BME280;21234;48.690;9.016;2023-06-14T12:45:07;95842.66;;;25.11;30.28
706;BME280;21234;48.690;9.016;2023-06-14T12:47:33;95846.22;;;25.24;29.70
706;BME280;21234;48.690;9.016;2023-06-14T12:50:01;95835.34;;;25.34;29.86
706;BME280;21234;48.690;9.016;2023-06-14T12:52:27;95834.88;;;25.17;29.18
706;BME280;21234;48.690;9.016;2023-06-14T12:54:54;95839.22;;;24.90;29.60
706;BME280;21234;48.690;9.016;2023-06-14T12:57:21;95847.25;;;25.19;29.85
706;BME280;21234;48.690;9.016;2023-06-14T12:59:47;95841.38;;;25.36;30.11
706;BME280;21234;48.690;9.016;2023-06-14T13:02:17;95843.19;;;25.44;29.57
706;BME280;21234;48.690;9.016;2023-06-14T13:04:44;95843.19;;;25.44;29.29
706;BME280;21234;48.690;9.016;2023-06-14T13:07:11;95844.91;;;25.49;29.78
706;BME280;21234;48.690;9.016;2023-06-14T13:09:37;95839.50;;;25.40;29.72
706;BME280;21234;48.690;9.016;2023-06-14T13:12:05;95855.28;;;25.36;29.83
706;BME280;21234;48.690;9.016;2023-06-14T13:14:32;95852.09;;;25.50;29.48
706;BME280;21234;48.690;9.016;2023-06-14T13:16:58;95853.09;;;25.58;29.34
706;BME280;21234;48.690;9.016;2023-06-14T13:19:26;95852.09;;;25.50;29.29
706;BME280;21234;48.690;9.016;2023-06-14T13:21:53;95849.47;;;25.69;29.45
706;BME280;21234;48.690;9.016;2023-06-14T13:24:20;95849.66;;;25.92;30.86
706;BME280;21234;48.690;9.016;2023-06-14T13:26:47;95846.44;;;25.90;29.55
706;BME280;21234;48.690;9.016;2023-06-14T13:29:14;95851.63;;;25.76;27.86